Time;durP1;ratioP1;P1;durP2;ratioP2;P2;SDS_P1;SDS_P2;PMS_P1;PMS_P2;Temp;Humidity;BMP_temperature;BMP_pressure;BME280_temperature;BME280_humidity;BME280_pressure;Samples;Min_cycle;Max_cycle;Signal;HPM_P1;HPM_P2
2023/12/21 00:00:51;;;;;;;3.53;1.93;;;4.30;99.90;;;;;;5032151;28;20692;-61
2023/12/21 00:03:18;;;;;;;2.03;1.83;;;4.30;99.90;;;;;;5032205;28;20206;-60
2023/12/21 00:05:45;;;;;;;1.63;0.90;;;4.20;99.90;;;;;;5031756;28;20255;-60
2023/12/21 00:08:13;;;;;;;1.10;1.10;;;4.30;99.90;;;;;;5032111;28;20200;-61
2023/12/21 00:10:40;;;;;;;2.93;1.67;;;4.20;99.90;;;;;;5031986;28;20216;-60
2023/12/21 00:13:07;;;;;;;2.07;1.60;;;4.20;99.90;;;;;;5031033;28;20665;-61
2023/12/21 00:15:34;;;;;;;2.83;1.97;;;4.20;99.90;;;;;;5032123;28;20212;-60
2023/12/21 00:18:01;;;;;;;1.27;1.17;;;4.10;99.90;;;;;;5031960;28;20287;-60
2023/12/21 00:20:28;;;;;;;1.20;1.10;;;4.20;99.90;;;;;;5031841;28;20231;-60
2023/12/21 00:22:55;;;;;;;1.97;1.10;;;4.30;99.90;;;;;;5031813;28;20673;-60
2023/12/21 00:25:24;;;;;;;3.20;1.27;;;4.30;99.90;;;;;;5031933;28;20577;-60
2023/12/21 00:27:51;;;;;;;1.27;1.17;;;4.30;99.90;;;;;;5031577;28;20205;-60
2023/12/21 00:30:18;;;;;;;3.00;2.73;;;4.40;99.90;;;;;;5031705;28;20282;-60
2023/12/21 00:32:45;;;;;;;1.00;1.00;;;4.30;99.90;;;;;;5029724;28;20228;-60
2023/12/21 00:35:12;;;;;;;2.67;1.90;;;4.20;99.90;;;;;;5030157;28;20360;-61
2023/12/21 00:37:39;;;;;;;4.83;1.50;;;4.20;99.90;;;;;;5030365;28;20283;-61
2023/12/21 00:40:07;;;;;;;1.33;1.23;;;4.10;99.90;;;;;;5035264;28;20225;-61
2023/12/21 00:42:38;;;;;;;5.80;1.53;;;4.20;99.90;;;;;;5032502;28;20278;-61
2023/12/21 00:45:06;;;;;;;1.80;1.20;;;4.10;99.90;;;;;;5032137;28;20213;-60
2023/12/21 00:47:33;;;;;;;3.63;1.33;;;4.10;99.90;;;;;;5038575;28;20207;-61
2023/12/21 00:50:00;;;;;;;3.53;1.07;;;4.10;99.90;;;;;;5043120;28;20228;-61
2023/12/21 00:52:27;;;;;;;2.23;1.33;;;4.10;99.90;;;;;;5048147;28;20263;-60
2023/12/21 00:54:54;;;;;;;1.33;1.33;;;4.00;99.90;;;;;;5031985;28;20678;-61
2023/12/21 00:57:21;;;;;;;1.40;1.30;;;4.10;99.90;;;;;;5032147;28;20668;-61
2023/12/21 00:59:49;;;;;;;1.90;1.80;;;4.10;99.90;;;;;;5039127;28;20670;-61
2023/12/21 01:02:16;;;;;;;2.33;2.10;;;4.10;99.90;;;;;;5030896;28;20717;-61
2023/12/21 01:04:43;;;;;;;1.90;1.80;;;4.10;99.90;;;;;;5031521;28;20546;-61
2023/12/21 01:07:10;;;;;;;2.73;2.37;;;4.10;99.90;;;;;;5032154;28;20270;-60
2023/12/21 01:09:38;;;;;;;1.70;1.60;;;4.10;99.90;;;;;;5031162;28;20208;-60
2023/12/21 01:12:06;;;;;;;2.80;1.60;;;4.10;99.90;;;;;;5034772;28;20211;-61
2023/12/21 01:14:33;;;;;;;2.27;1.57;;;4.10;99.90;;;;;;5043384;28;20203;-60
2023/12/21 01:17:02;;;;;;;1.47;1.40;;;4.10;99.90;;;;;;5040812;28;20251;-61
2023/12/21 01:19:29;;;;;;;2.10;2.00;;;4.10;99.90;;;;;;5031278;28;20204;-61
2023/12/21 01:21:59;;;;;;;3.37;1.87;;;4.00;99.90;;;;;;5032024;28;20224;-60
2023/12/21 01:24:26;;;;;;;2.00;1.20;;;4.10;99.90;;;;;;5037161;28;20290;-60
2023/12/21 01:26:56;;;;;;;1.97;1.87;;;4.10;99.90;;;;;;5043384;28;20254;-61
2023/12/21 01:29:23;;;;;;;1.87;1.77;;;4.00;99.90;;;;;;5054558;28;20691;-60
2023/12/21 01:31:52;;;;;;;2.00;1.50;;;4.10;99.90;;;;;;5049040;28;20977;-62
2023/12/21 01:34:21;;;;;;;1.53;1.13;;;4.00;99.90;;;;;;5031530;28;20738;-61
2023/12/21 01:36:48;;;;;;;1.97;1.00;;;4.10;99.90;;;;;;5032232;28;20201;-61
2023/12/21 01:39:15;;;;;;;1.27;1.17;;;4.10;99.90;;;;;;5042861;28;20255;-60
2023/12/21 01:41:42;;;;;;;2.10;1.40;;;4.10;99.90;;;;;;5051381;28;20708;-61
2023/12/21 01:44:09;;;;;;;1.27;1.17;;;4.10;99.90;;;;;;5051279;28;20679;-61
2023/12/21 01:46:36;;;;;;;1.23;0.90;;;4.20;99.90;;;;;;5037268;28;20212;-61
2023/12/21 01:49:03;;;;;;;1.50;1.00;;;4.20;99.90;;;;;;5031527;28;20746;-61
2023/12/21 01:51:33;;;;;;;0.70;0.70;;;4.20;99.90;;;;;;5039874;28;20658;-60
2023/12/21 01:54:03;;;;;;;1.77;1.40;;;4.30;99.90;;;;;;5050410;28;20197;-61
2023/12/21 01:56:31;;;;;;;1.77;1.67;;;4.30;99.90;;;;;;5051265;28;20257;-61
2023/12/21 02:01:26;;;;;;;2.23;1.33;;;4.30;99.90;;;;;;5099635;22;20338;-60
2023/12/21 02:03:54;;;;;;;2.23;1.50;;;4.30;99.90;;;;;;5080202;28;20210;-60
2023/12/21 02:06:22;;;;;;;9.10;1.53;;;4.40;99.90;;;;;;5090721;28;20653;-60
2023/12/21 02:08:50;;;;;;;0.97;0.80;;;4.30;99.90;;;;;;5090419;28;20253;-60
2023/12/21 02:11:17;;;;;;;2.60;2.40;;;4.30;99.90;;;;;;5090104;28;20268;-60
2023/12/21 02:13:44;;;;;;;2.20;2.00;;;4.30;99.90;;;;;;5085588;28;20277;-60
2023/12/21 02:16:17;;;;;;;2.77;2.37;;;4.30;99.90;;;;;;5082313;28;20269;-60
2023/12/21 02:18:45;;;;;;;1.50;1.40;;;4.30;99.90;;;;;;5090201;28;20212;-60
2023/12/21 02:21:13;;;;;;;2.93;1.17;;;4.20;99.90;;;;;;5090516;28;20222;-60
2023/12/21 02:23:42;;;;;;;0.97;0.97;;;4.30;99.90;;;;;;5085527;28;20201;-60
2023/12/21 02:26:13;;;;;;;1.20;0.90;;;4.40;99.90;;;;;;5074511;28;20203;-60
2023/12/21 02:28:40;;;;;;;3.63;1.97;;;4.50;99.90;;;;;;5082063;28;20197;-60
2023/12/21 02:31:07;;;;;;;1.70;1.60;;;4.40;99.90;;;;;;5093984;28;20275;-60
2023/12/21 02:33:34;;;;;;;4.60;2.10;;;4.50;99.90;;;;;;5094164;28;20207;-60
2023/12/21 02:36:02;;;;;;;1.50;1.40;;;4.40;99.90;;;;;;5094206;28;20206;-60
2023/12/21 02:38:31;;;;;;;2.00;1.57;;;4.40;99.90;;;;;;5087352;28;20284;-60
2023/12/21 02:40:59;;;;;;;1.50;1.37;;;4.50;99.90;;;;;;5084710;28;20217;-60
2023/12/21 02:43:27;;;;;;;1.20;0.97;;;4.50;99.90;;;;;;5093260;28;20209;-60
2023/12/21 02:45:54;;;;;;;1.73;1.40;;;4.50;99.90;;;;;;5094136;28;20208;-60
2023/12/21 02:48:21;;;;;;;2.67;1.60;;;4.50;99.90;;;;;;5093549;28;20202;-60
2023/12/21 02:50:48;;;;;;;1.80;1.70;;;4.50;99.90;;;;;;5087212;28;20217;-60
2023/12/21 02:53:15;;;;;;;2.67;2.23;;;4.50;99.90;;;;;;5081128;28;20193;-60
2023/12/21 02:55:42;;;;;;;2.57;1.67;;;4.50;99.90;;;;;;5090080;28;20203;-60
2023/12/21 02:58:09;;;;;;;1.43;1.33;;;4.50;99.90;;;;;;5093625;28;20210;-60
2023/12/21 03:00:37;;;;;;;1.57;1.47;;;4.50;99.90;;;;;;5093445;28;20226;-60
2023/12/21 03:03:04;;;;;;;1.83;1.70;;;4.60;99.90;;;;;;5089296;28;20294;-60
2023/12/21 03:05:31;;;;;;;1.77;1.00;;;4.60;99.90;;;;;;5081219;28;20630;-60
2023/12/21 03:07:58;;;;;;;2.67;1.17;;;4.60;99.90;;;;;;5091521;28;20203;-60
2023/12/21 03:10:25;;;;;;;1.67;0.90;;;4.60;99.90;;;;;;5093310;28;20299;-61
2023/12/21 03:12:52;;;;;;;0.80;0.80;;;4.60;99.90;;;;;;5093536;28;20202;-60
2023/12/21 03:15:19;;;;;;;1.83;1.00;;;4.70;99.90;;;;;;5093472;28;20210;-60
2023/12/21 03:17:48;;;;;;;1.20;1.10;;;4.70;99.90;;;;;;5085610;28;20283;-60
2023/12/21 03:20:15;;;;;;;2.83;1.30;;;4.70;99.90;;;;;;5084980;28;20326;-60
2023/12/21 03:22:42;;;;;;;1.03;0.90;;;4.70;99.90;;;;;;5093046;28;20264;-60
2023/12/21 03:25:09;;;;;;;2.70;1.53;;;4.80;99.90;;;;;;5086922;28;20203;-60
2023/12/21 03:27:36;;;;;;;2.23;1.30;;;4.80;99.90;;;;;;5076861;28;20259;-60
2023/12/21 03:30:03;;;;;;;2.60;1.40;;;4.80;99.90;;;;;;5082707;28;20220;-60
2023/12/21 03:32:30;;;;;;;1.80;1.30;;;4.80;99.90;;;;;;5067204;28;20201;-60
2023/12/21 03:34:59;;;;;;;1.23;1.13;;;4.80;99.90;;;;;;5071494;28;20734;-60
2023/12/21 03:37:27;;;;;;;1.10;1.10;;;4.70;99.90;;;;;;5072174;28;20291;-61
2023/12/21 03:39:54;;;;;;;1.30;0.80;;;4.70;99.90;;;;;;5071963;28;20603;-60
2023/12/21 03:42:21;;;;;;;1.93;1.33;;;4.70;99.90;;;;;;5072243;28;20304;-61
2023/12/21 03:44:48;;;;;;;1.30;1.20;;;4.60;99.90;;;;;;5072206;28;20207;-61
2023/12/21 03:47:15;;;;;;;1.13;1.13;;;4.70;99.90;;;;;;5072903;28;20197;-61
2023/12/21 03:49:42;;;;;;;2.00;1.20;;;4.70;99.90;;;;;;5071695;28;20226;-61
2023/12/21 03:52:11;;;;;;;1.27;1.17;;;4.70;99.90;;;;;;5072114;28;20247;-61
2023/12/21 03:54:38;;;;;;;1.33;1.23;;;4.70;99.90;;;;;;5072297;28;20215;-61
2023/12/21 03:57:05;;;;;;;1.30;1.13;;;4.60;99.90;;;;;;5072074;28;21465;-61
2023/12/21 03:59:34;;;;;;;1.23;1.20;;;4.60;99.90;;;;;;5071085;28;20231;-61
2023/12/21 04:02:01;;;;;;;1.50;1.20;;;4.50;99.90;;;;;;5071617;28;20703;-61
2023/12/21 04:04:31;;;;;;;2.53;1.07;;;4.50;99.90;;;;;;5071709;28;21059;-60
2023/12/21 04:06:59;;;;;;;2.40;1.33;;;4.50;99.90;;;;;;5073708;28;20197;-61
2023/12/21 04:09:28;;;;;;;1.33;1.33;;;4.40;99.90;;;;;;5082484;28;20295;-61
2023/12/21 04:11:58;;;;;;;1.80;1.00;;;4.10;99.90;;;;;;5072032;28;20200;-61
2023/12/21 04:14:25;;;;;;;1.23;1.03;;;4.50;99.90;;;;;;5076770;28;20208;-61
2023/12/21 04:16:53;;;;;;;1.50;1.40;;;4.40;99.90;;;;;;5071855;28;20675;-61
2023/12/21 04:19:20;;;;;;;1.03;1.03;;;4.60;99.90;;;;;;5071038;28;20245;-62
2023/12/21 04:21:47;;;;;;;1.63;0.87;;;4.40;99.90;;;;;;5075919;28;20227;-62
2023/12/21 04:24:14;;;;;;;1.47;1.03;;;4.40;99.90;;;;;;5082773;28;20206;-61
2023/12/21 04:26:42;;;;;;;1.20;1.10;;;4.30;99.90;;;;;;5081425;28;20202;-61
2023/12/21 04:29:09;;;;;;;1.40;1.30;;;4.50;99.90;;;;;;5078679;28;20663;-61
2023/12/21 04:31:41;;;;;;;1.40;1.30;;;4.60;99.90;;;;;;5081785;28;20203;-61
2023/12/21 04:34:08;;;;;;;1.10;1.10;;;4.70;99.90;;;;;;5078839;28;20685;-61
2023/12/21 04:36:35;;;;;;;1.20;1.10;;;4.80;99.90;;;;;;5073828;28;20257;-61
2023/12/21 04:39:03;;;;;;;0.90;0.90;;;4.60;99.90;;;;;;5083280;28;20588;-61
2023/12/21 04:41:30;;;;;;;1.70;1.60;;;4.90;99.90;;;;;;5074947;28;20277;-61
2023/12/21 04:43:58;;;;;;;2.23;1.13;;;4.90;99.90;;;;;;5078906;28;20761;-61
2023/12/21 04:46:25;;;;;;;1.07;1.07;;;4.90;99.90;;;;;;5080461;28;20667;-61
2023/12/21 04:48:52;;;;;;;3.10;1.37;;;4.90;99.90;;;;;;5081958;28;20259;-61
2023/12/21 04:51:19;;;;;;;1.83;0.97;;;4.80;99.90;;;;;;5082770;28;20215;-61
2023/12/21 04:53:46;;;;;;;1.27;0.90;;;4.80;99.90;;;;;;5084354;28;20201;-61
2023/12/21 04:56:13;;;;;;;1.00;1.00;;;4.80;99.90;;;;;;5070708;28;20245;-61
2023/12/21 04:58:40;;;;;;;1.47;1.30;;;4.80;99.90;;;;;;5079908;28;20200;-61
2023/12/21 05:01:09;;;;;;;2.47;1.60;;;4.80;99.90;;;;;;5074004;28;20218;-61
2023/12/21 05:03:36;;;;;;;5.30;1.90;;;4.90;99.90;;;;;;5083331;28;20204;-61
2023/12/21 05:06:03;;;;;;;1.73;1.63;;;4.90;99.90;;;;;;5077102;28;20256;-60
2023/12/21 05:08:30;;;;;;;1.93;1.73;;;4.70;99.90;;;;;;5077416;28;20288;-61
2023/12/21 05:10:57;;;;;;;5.07;1.67;;;5.00;99.90;;;;;;5070650;28;20274;-60
2023/12/21 05:13:24;;;;;;;2.93;1.13;;;4.90;99.90;;;;;;5070799;28;20202;-61
2023/12/21 05:15:51;;;;;;;2.20;2.10;;;4.90;99.90;;;;;;5070156;28;20202;-61
2023/12/21 05:18:19;;;;;;;1.37;1.20;;;4.90;99.90;;;;;;5070461;28;20204;-60
2023/12/21 05:20:46;;;;;;;1.30;1.23;;;5.70;99.90;;;;;;5070781;28;20241;-61
2023/12/21 05:23:13;;;;;;;1.37;1.00;;;4.90;99.90;;;;;;5070726;28;20252;-61
2023/12/21 05:25:40;;;;;;;1.37;1.27;;;4.80;99.90;;;;;;5070725;28;20689;-61
2023/12/21 05:28:07;;;;;;;1.47;1.17;;;4.80;99.90;;;;;;5070543;28;20287;-61
2023/12/21 05:30:34;;;;;;;1.17;1.10;;;4.80;99.90;;;;;;5070278;28;20302;-62
2023/12/21 05:33:01;;;;;;;1.00;1.00;;;4.90;99.90;;;;;;5070742;28;20199;-61
2023/12/21 05:35:29;;;;;;;1.73;1.10;;;4.90;99.90;;;;;;5074277;28;20256;-61
2023/12/21 05:37:56;;;;;;;1.27;1.10;;;4.80;99.90;;;;;;5098572;28;20199;-61
2023/12/21 05:40:23;;;;;;;1.83;1.00;;;4.90;99.90;;;;;;5090994;28;20260;-62
2023/12/21 05:42:50;;;;;;;1.40;1.30;;;4.90;99.90;;;;;;5099216;28;20220;-60
2023/12/21 05:45:17;;;;;;;1.17;1.17;;;4.90;99.90;;;;;;5089245;28;20230;-61
2023/12/21 05:47:44;;;;;;;1.27;1.27;;;5.00;99.90;;;;;;5073442;28;20203;-61
2023/12/21 05:50:11;;;;;;;1.53;1.23;;;4.90;99.90;;;;;;5070154;28;20222;-61
2023/12/21 05:52:39;;;;;;;1.63;1.53;;;4.90;99.90;;;;;;5070255;28;20231;-61
2023/12/21 05:55:07;;;;;;;1.40;1.30;;;5.00;99.90;;;;;;5070530;28;20258;-61
2023/12/21 05:57:35;;;;;;;0.77;0.77;;;;;;;;;;5073015;28;20206;-60
2023/12/21 06:00:03;;;;;;;0.80;0.80;;;4.90;99.90;;;;;;5073288;28;20230;-61
2023/12/21 06:02:30;;;;;;;1.03;1.03;;;5.00;99.90;;;;;;5080157;28;20864;-61
2023/12/21 06:04:57;;;;;;;1.33;1.07;;;5.10;99.90;;;;;;5076196;28;20206;-61
2023/12/21 06:07:24;;;;;;;2.27;1.33;;;5.00;99.90;;;;;;5074161;28;20200;-61
2023/12/21 06:09:52;;;;;;;1.43;1.33;;;5.00;99.90;;;;;;5073419;28;20247;-61
2023/12/21 06:12:19;;;;;;;1.40;1.40;;;4.90;99.90;;;;;;5073186;28;20630;-60
2023/12/21 06:14:46;;;;;;;1.50;1.40;;;5.00;99.90;;;;;;5073801;28;20212;-60
2023/12/21 06:17:14;;;;;;;1.07;1.03;;;5.00;99.90;;;;;;5073916;28;20251;-61
2023/12/21 06:19:42;;;;;;;0.97;0.97;;;5.00;99.90;;;;;;5073120;28;20311;-60
2023/12/21 06:22:09;;;;;;;1.30;1.20;;;5.00;99.90;;;;;;5073678;28;20282;-61
2023/12/21 06:24:36;;;;;;;2.00;1.90;;;5.00;99.90;;;;;;5073954;28;20277;-61
2023/12/21 06:27:05;;;;;;;1.77;1.67;;;5.10;99.90;;;;;;5073340;28;20265;-61
2023/12/21 06:29:32;;;;;;;2.23;1.70;;;5.10;99.90;;;;;;5073354;28;20772;-61
2023/12/21 06:31:58;;;;;;;2.07;1.60;;;5.10;99.90;;;;;;5073317;28;20196;-61
2023/12/21 06:34:26;;;;;;;1.97;1.57;;;5.00;99.90;;;;;;5073971;28;20681;-60
2023/12/21 06:36:54;;;;;;;1.90;1.43;;;5.10;99.90;;;;;;5073481;28;20633;-60
2023/12/21 06:39:21;;;;;;;1.47;1.37;;;5.10;99.90;;;;;;5073029;28;20202;-60
2023/12/21 06:41:51;;;;;;;2.20;1.77;;;5.00;99.90;;;;;;5073163;28;20767;-60
2023/12/21 06:44:20;;;;;;;3.23;1.70;;;5.00;99.90;;;;;;5071985;28;20204;-60
2023/12/21 06:46:47;;;;;;;1.97;1.53;;;5.00;99.90;;;;;;5073158;28;20210;-60
2023/12/21 06:49:14;;;;;;;1.67;1.47;;;5.00;99.90;;;;;;5062414;28;20203;-62
2023/12/21 06:51:42;;;;;;;1.37;1.27;;;5.10;99.90;;;;;;5073431;28;20287;-60
2023/12/21 06:54:09;;;;;;;1.47;1.33;;;5.10;99.90;;;;;;5072169;28;20285;-60
2023/12/21 06:56:36;;;;;;;1.70;1.60;;;5.10;99.90;;;;;;5073061;28;20223;-60
2023/12/21 06:59:03;;;;;;;1.00;1.00;;;5.10;99.90;;;;;;5067926;28;20253;-61
2023/12/21 07:01:32;;;;;;;1.50;1.40;;;5.10;99.90;;;;;;5069936;28;20207;-60
2023/12/21 07:03:59;;;;;;;2.30;1.10;;;5.10;99.90;;;;;;5073203;28;20637;-60
2023/12/21 07:06:26;;;;;;;1.20;1.20;;;5.20;99.90;;;;;;5073356;28;20248;-61
2023/12/21 07:08:53;;;;;;;1.13;1.13;;;5.20;99.90;;;;;;5073785;28;20265;-60
2023/12/21 07:11:20;;;;;;;1.20;1.10;;;5.20;99.90;;;;;;5072922;28;20571;-60
2023/12/21 07:13:47;;;;;;;1.30;1.10;;;5.20;99.90;;;;;;5072851;28;20201;-60
2023/12/21 07:16:14;;;;;;;1.00;1.00;;;5.20;99.90;;;;;;5071091;28;20210;-60
2023/12/21 07:18:42;;;;;;;1.00;1.00;;;5.30;99.90;;;;;;5072065;28;20204;-60
2023/12/21 07:21:09;;;;;;;1.23;1.13;;;5.30;99.90;;;;;;5072668;28;20227;-60
2023/12/21 07:23:36;;;;;;;0.83;0.83;;;5.30;99.90;;;;;;5072523;28;20234;-60
2023/12/21 07:26:04;;;;;;;1.37;1.27;;;5.40;99.90;;;;;;5072422;28;20208;-60
2023/12/21 07:28:31;;;;;;;5.20;1.80;;;5.50;99.90;;;;;;5072358;28;20289;-60
2023/12/21 07:30:59;;;;;;;1.73;1.47;;;5.50;99.90;;;;;;5071326;28;20223;-60
2023/12/21 07:33:26;;;;;;;1.40;1.23;;;5.40;99.90;;;;;;5072545;28;20197;-60
2023/12/21 07:35:54;;;;;;;1.67;1.53;;;5.50;99.90;;;;;;5071058;28;20202;-60
2023/12/21 07:38:21;;;;;;;2.03;1.60;;;5.50;99.90;;;;;;5071628;28;20204;-60
2023/12/21 07:40:48;;;;;;;2.33;1.30;;;5.40;99.90;;;;;;5071711;28;20429;-62
2023/12/21 07:43:15;;;;;;;2.10;1.20;;;5.40;99.90;;;;;;5068604;28;20454;-60
2023/12/21 07:45:42;;;;;;;1.40;1.40;;;5.40;99.90;;;;;;5071350;28;20211;-60
2023/12/21 07:48:09;;;;;;;1.30;1.30;;;5.40;99.90;;;;;;5071082;28;20692;-59
2023/12/21 07:50:36;;;;;;;1.10;1.10;;;5.40;99.90;;;;;;5071745;28;20222;-68
2023/12/21 07:53:05;;;;;;;2.67;1.13;;;5.40;99.90;;;;;;5071687;28;20201;-59
2023/12/21 07:55:32;;;;;;;2.00;1.37;;;5.40;99.90;;;;;;5070084;28;20260;-58
2023/12/21 07:57:59;;;;;;;2.03;1.37;;;5.40;99.90;;;;;;5069957;28;20283;-58
2023/12/21 08:00:26;;;;;;;1.23;0.87;;;5.40;99.90;;;;;;5068891;28;20675;-58
2023/12/21 08:02:53;;;;;;;1.23;1.00;;;5.50;99.90;;;;;;5070096;28;20221;-58
2023/12/21 08:05:22;;;;;;;0.60;0.60;;;5.50;99.90;;;;;;5074191;22;20298;-62
2023/12/21 08:07:49;;;;;;;1.30;1.20;;;5.60;99.90;;;;;;5050760;28;20615;-62
2023/12/21 08:10:18;;;;;;;1.33;1.30;;;5.60;99.90;;;;;;5050556;28;20208;-62
2023/12/21 08:12:46;;;;;;;1.00;1.00;;;5.60;99.90;;;;;;5053164;28;20204;-62
2023/12/21 08:15:14;;;;;;;1.50;1.30;;;5.60;99.90;;;;;;5048126;28;20727;-62
2023/12/21 08:17:42;;;;;;;2.27;2.07;;;5.70;99.90;;;;;;5028508;28;20620;-62
2023/12/21 08:20:12;;;;;;;5.53;3.73;;;5.60;99.90;;;;;;5019046;28;20246;-61
2023/12/21 08:22:39;;;;;;;2.10;2.00;;;5.60;99.90;;;;;;5032425;28;20364;-62
2023/12/21 08:25:07;;;;;;;1.63;1.60;;;5.60;99.90;;;;;;5021878;28;20225;-62
2023/12/21 08:27:35;;;;;;;2.93;2.07;;;5.60;99.90;;;;;;5032583;28;20696;-62
2023/12/21 08:30:03;;;;;;;1.67;1.57;;;5.60;99.90;;;;;;5033003;28;20288;-62
2023/12/21 08:32:30;;;;;;;1.70;1.63;;;5.60;99.90;;;;;;5032855;28;20236;-62
2023/12/21 08:34:56;;;;;;;1.83;1.73;;;5.60;99.90;;;;;;5039075;28;20225;-62
2023/12/21 08:37:23;;;;;;;3.53;1.87;;;5.60;99.90;;;;;;5052318;28;20269;-62
2023/12/21 08:39:50;;;;;;;1.97;1.80;;;5.60;99.90;;;;;;5048049;28;20257;-62
2023/12/21 08:42:17;;;;;;;2.30;1.47;;;5.60;99.90;;;;;;5037237;28;20217;-62
2023/12/21 08:44:46;;;;;;;2.67;2.27;;;5.60;99.90;;;;;;5040729;28;20216;-62
2023/12/21 08:47:13;;;;;;;2.00;1.47;;;5.70;99.90;;;;;;5051767;28;20199;-62
2023/12/21 08:49:40;;;;;;;1.73;1.60;;;5.70;99.90;;;;;;5046309;28;20202;-62
2023/12/21 08:52:09;;;;;;;2.73;2.00;;;5.80;99.90;;;;;;5040964;28;20611;-62
2023/12/21 08:54:36;;;;;;;2.30;2.20;;;5.90;99.90;;;;;;5051906;28;20657;-62
2023/12/21 08:57:03;;;;;;;2.20;1.63;;;6.00;99.90;;;;;;5054527;28;20211;-62
2023/12/21 08:59:30;;;;;;;2.53;2.33;;;6.00;99.90;;;;;;5032650;28;20731;-62
2023/12/21 09:01:59;;;;;;;2.63;1.30;;;6.00;99.90;;;;;;5031939;28;20200;-62
2023/12/21 09:04:26;;;;;;;1.60;1.50;;;6.00;99.90;;;;;;5031792;28;20310;-62
2023/12/21 09:06:56;;;;;;;1.20;1.20;;;6.00;99.90;;;;;;5032300;28;20350;-62
2023/12/21 09:09:23;;;;;;;1.93;1.17;;;6.10;99.90;;;;;;5031565;28;20751;-62
2023/12/21 09:11:54;;;;;;;3.07;1.87;;;6.10;99.90;;;;;;5031893;28;20579;-62
2023/12/21 09:14:22;;;;;;;6.40;2.10;;;6.20;99.90;;;;;;5037787;28;20249;-62
2023/12/21 09:16:51;;;;;;;3.20;1.80;;;6.20;99.90;;;;;;5051777;28;20199;-62
2023/12/21 09:19:19;;;;;;;6.00;2.13;;;6.30;99.90;;;;;;5051408;28;20231;-62
2023/12/21 09:21:46;;;;;;;4.10;1.73;;;6.30;99.90;;;;;;5051805;28;20203;-62
2023/12/21 09:24:13;;;;;;;1.57;1.47;;;6.30;99.90;;;;;;5051503;28;20227;-62
2023/12/21 09:26:40;;;;;;;3.67;2.30;;;6.30;99.90;;;;;;5051652;28;20201;-62
2023/12/21 09:29:07;;;;;;;2.30;2.10;;;6.30;99.90;;;;;;5051251;28;20261;-62
2023/12/21 09:31:34;;;;;;;3.47;2.73;;;6.30;99.90;;;;;;5040934;28;20255;-62
2023/12/21 09:34:02;;;;;;;5.27;3.00;;;6.30;99.90;;;;;;5036394;28;20254;-63
2023/12/21 09:36:30;;;;;;;4.13;3.30;;;6.20;99.90;;;;;;5036012;28;20202;-62
2023/12/21 09:38:57;;;;;;;3.83;3.07;;;6.30;99.90;;;;;;5035481;28;20561;-62
2023/12/21 09:41:24;;;;;;;4.30;3.13;;;6.30;99.90;;;;;;5035791;28;20207;-62
2023/12/21 09:43:53;;;;;;;4.70;2.80;;;6.30;99.90;;;;;;5035560;28;20243;-62
2023/12/21 09:46:23;;;;;;;5.50;3.10;;;6.30;99.90;;;;;;5037559;28;20781;-62
2023/12/21 09:48:51;;;;;;;4.40;2.27;;;6.30;99.90;;;;;;5055430;28;20203;-62
2023/12/21 09:51:20;;;;;;;2.57;2.37;;;6.30;99.90;;;;;;5055751;28;20635;-62
2023/12/21 09:53:48;;;;;;;4.97;3.40;;;6.30;99.90;;;;;;5040990;28;20224;-62
2023/12/21 09:56:17;;;;;;;5.03;1.70;;;6.30;99.90;;;;;;5035482;28;20220;-62
2023/12/21 09:58:46;;;;;;;2.47;1.40;;;6.30;99.90;;;;;;5034898;28;20285;-62
2023/12/21 10:01:13;;;;;;;1.47;1.37;;;6.30;99.90;;;;;;5036478;28;20257;-62
2023/12/21 10:03:40;;;;;;;4.07;2.13;;;6.30;99.90;;;;;;5042863;28;20227;-62
2023/12/21 10:06:08;;;;;;;1.50;1.40;;;6.30;99.90;;;;;;5036435;28;20224;-62
2023/12/21 10:08:35;;;;;;;2.03;1.67;;;6.30;99.90;;;;;;5034914;28;20215;-62
2023/12/21 10:11:06;;;;;;;5.43;1.43;;;6.30;99.90;;;;;;5035535;28;20208;-62
2023/12/21 10:13:33;;;;;;;0.77;0.70;;;6.30;99.90;;;;;;5036395;28;20253;-62
2023/12/21 10:16:00;;;;;;;2.93;1.33;;;6.20;99.90;;;;;;5045752;28;20303;-62
2023/12/21 10:18:27;;;;;;;1.37;1.27;;;6.20;99.90;;;;;;5034659;28;20262;-62
2023/12/21 10:20:55;;;;;;;2.03;1.63;;;6.30;99.90;;;;;;5035104;28;20245;-62
2023/12/21 10:23:21;;;;;;;1.87;1.63;;;6.30;99.90;;;;;;5033890;28;20307;-62
2023/12/21 10:25:49;;;;;;;2.67;1.57;;;6.30;99.90;;;;;;5046192;28;20705;-62
2023/12/21 10:28:21;;;;;;;1.47;1.00;;;6.30;99.90;;;;;;5054267;28;20681;-62
2023/12/21 10:30:53;;;;;;;0.80;0.80;;;6.20;99.90;;;;;;5054629;28;20269;-62
2023/12/21 10:33:20;;;;;;;1.23;1.17;;;6.20;99.90;;;;;;5044493;28;20261;-62
2023/12/21 10:35:47;;;;;;;0.70;0.70;;;6.30;99.90;;;;;;5038855;28;20219;-62
2023/12/21 10:38:15;;;;;;;1.90;1.13;;;6.40;99.90;;;;;;5034479;28;20282;-62
2023/12/21 10:40:45;;;;;;;1.30;1.27;;;6.40;99.90;;;;;;5034593;28;20236;-62
2023/12/21 10:43:12;;;;;;;1.60;1.50;;;6.20;99.90;;;;;;5032891;28;20221;-62
2023/12/21 10:45:44;;;;;;;1.17;1.13;;;6.10;99.90;;;;;;5045998;28;20220;-62
2023/12/21 10:48:15;;;;;;;1.30;1.20;;;6.00;99.90;;;;;;5054213;28;20257;-62
2023/12/21 10:50:43;;;;;;;1.53;1.43;;;6.10;99.90;;;;;;5035100;28;20201;-62
2023/12/21 10:53:11;;;;;;;2.93;1.67;;;6.10;99.90;;;;;;5037204;28;20198;-62
2023/12/21 10:55:38;;;;;;;0.93;0.93;;;6.10;99.90;;;;;;5033333;28;20222;-62
2023/12/21 10:58:07;;;;;;;1.63;1.63;;;6.10;99.90;;;;;;5025737;28;20236;-62
2023/12/21 11:00:34;;;;;;;1.77;1.10;;;6.10;99.90;;;;;;5042239;28;20291;-62
2023/12/21 11:03:07;;;;;;;1.30;1.30;;;6.20;99.90;;;;;;5033663;28;20220;-62
2023/12/21 11:05:35;;;;;;;7.10;1.93;;;6.10;99.90;;;;;;5039719;28;20329;-62
2023/12/21 11:08:03;;;;;;;1.27;1.17;;;6.10;99.90;;;;;;5033558;28;20200;-62
2023/12/21 11:10:33;;;;;;;1.73;1.43;;;6.10;99.90;;;;;;5033817;28;20239;-62
2023/12/21 11:13:00;;;;;;;1.43;1.33;;;6.10;99.90;;;;;;5033771;28;20287;-62
2023/12/21 11:15:27;;;;;;;1.07;1.03;;;6.20;99.90;;;;;;5034331;28;20233;-62
2023/12/21 11:17:58;;;;;;;1.90;1.13;;;6.20;99.90;;;;;;5034897;28;20210;-62
2023/12/21 11:20:32;;;;;;;1.33;1.23;;;6.20;99.90;;;;;;5034207;28;20204;-62
2023/12/21 11:23:05;;;;;;;1.07;1.00;;;6.20;99.90;;;;;;5032403;28;20621;-62
2023/12/21 11:25:33;;;;;;;1.23;1.13;;;6.30;99.90;;;;;;5032832;28;20229;-62
2023/12/21 11:28:02;;;;;;;3.03;1.10;;;6.20;99.90;;;;;;5033277;28;20220;-61
2023/12/21 11:30:31;;;;;;;0.90;0.90;;;6.30;99.90;;;;;;5033116;28;20206;-61
2023/12/21 11:33:05;;;;;;;0.97;0.97;;;6.30;99.90;;;;;;5028282;28;20204;-61
2023/12/21 11:35:34;;;;;;;2.67;1.40;;;6.30;99.90;;;;;;5033104;28;20223;-61
2023/12/21 11:38:02;;;;;;;1.90;1.10;;;6.40;99.90;;;;;;5032933;28;20265;-62
2023/12/21 11:40:30;;;;;;;2.10;1.73;;;6.40;99.90;;;;;;5033455;28;20311;-61
2023/12/21 11:42:59;;;;;;;1.30;1.20;;;6.40;99.90;;;;;;5041278;28;20290;-61
2023/12/21 11:45:28;;;;;;;1.33;1.23;;;6.40;99.90;;;;;;5032902;28;20708;-63
2023/12/21 11:47:56;;;;;;;1.53;1.53;;;6.30;99.90;;;;;;5024229;28;20235;-69
2023/12/21 11:50:26;;;;;;;2.60;1.57;;;6.40;99.90;;;;;;5033693;28;20199;-65
2023/12/21 11:53:06;;;;;;;1.87;1.10;;;6.30;99.90;;;;;;5025134;28;20198;-65
2023/12/21 11:55:37;;;;;;;1.47;1.37;;;6.30;99.90;;;;;;5032100;28;20227;-65
2023/12/21 11:58:19;;;;;;;1.50;1.30;;;6.40;99.90;;;;;;5032654;28;20300;-66
2023/12/21 12:00:50;;;;;;;1.10;1.10;;;6.40;99.90;;;;;;5032874;28;20222;-65
2023/12/21 12:03:18;;;;;;;1.63;1.53;;;6.30;99.90;;;;;;5032939;28;20637;-65
2023/12/21 12:05:45;;;;;;;1.70;1.13;;;6.30;99.90;;;;;;5037755;28;20266;-65
2023/12/21 12:08:15;;;;;;;0.93;0.93;;;6.40;99.90;;;;;;5051439;28;20200;-66
2023/12/21 12:10:42;;;;;;;2.70;1.30;;;6.40;99.90;;;;;;5044309;28;20205;-65
2023/12/21 12:13:18;;;;;;;1.07;0.93;;;6.40;99.90;;;;;;5038712;28;20198;-65
2023/12/21 12:15:47;;;;;;;1.20;0.93;;;6.40;99.90;;;;;;5048097;28;20225;-65
2023/12/21 12:18:14;;;;;;;1.00;0.70;;;6.30;99.90;;;;;;5052508;28;20300;-66
2023/12/21 12:20:43;;;;;;;1.53;1.43;;;6.40;99.90;;;;;;5032700;28;20678;-60
2023/12/21 12:23:10;;;;;;;2.70;1.53;;;6.50;99.90;;;;;;5031398;28;20254;-60
2023/12/21 12:25:39;;;;;;;1.43;1.33;;;6.50;99.90;;;;;;5025159;28;20225;-60
2023/12/21 12:28:06;;;;;;;2.30;1.47;;;6.40;99.90;;;;;;5024255;28;20674;-60
2023/12/21 12:30:33;;;;;;;2.13;1.73;;;6.50;99.90;;;;;;5022209;28;20734;-59
2023/12/21 12:33:03;;;;;;;1.33;1.23;;;6.40;99.90;;;;;;5020306;28;20202;-64
2023/12/21 12:35:32;;;;;;;1.13;1.10;;;6.40;99.90;;;;;;5015259;28;20224;-62
2023/12/21 12:37:59;;;;;;;1.20;0.80;;;6.50;99.90;;;;;;5019622;28;20199;-66
2023/12/21 12:40:27;;;;;;;0.50;0.50;;;6.60;99.90;;;;;;5027560;28;20211;-64
2023/12/21 12:42:57;;;;;;;1.17;0.50;;;6.70;99.90;;;;;;5042241;28;20211;-66
2023/12/21 12:45:24;;;;;;;0.77;0.77;;;6.70;99.90;;;;;;5039699;28;20650;-66
2023/12/21 12:47:52;;;;;;;1.13;0.90;;;6.70;99.90;;;;;;5032618;28;20205;-64
2023/12/21 12:50:23;;;;;;;0.30;0.30;;;6.40;99.90;;;;;;5031757;28;20293;-65
2023/12/21 12:52:50;;;;;;;0.50;0.50;;;6.70;99.90;;;;;;5032396;28;20212;-66
2023/12/21 12:55:18;;;;;;;1.37;0.97;;;6.70;99.90;;;;;;5026824;28;20227;-66
2023/12/21 12:57:46;;;;;;;0.60;0.57;;;6.80;99.90;;;;;;5027752;28;20287;-67
2023/12/21 13:00:17;;;;;;;0.67;0.40;;;6.80;99.90;;;;;;5027444;28;20213;-65
2023/12/21 13:02:44;;;;;;;1.57;0.80;;;6.80;99.90;;;;;;5041599;28;20245;-65